Greenville, New Jersey
Current Conditions -  °F | °C
As of 6:51 PM on Wednesday 28 Jan 2015 (Local Time) from KEWR Reporting Station
Clear Clear  
Wind Chill: 22°   Ceiling: Unl
Heat Index: 29°   Visibility: 10mi
Dew Point:   Wind: 7mph
Humidity: 36%   Direction: 300°WNW
Pressure: 30.2"   Gusts: NA
Location:  40.696°N, 74.0853°W
Report Text: KEWR 282351Z 30006KT 10SM CLR M02/M15 A3020 RMK AO2 SLP226 4/006 T10171150 10006 21022 51030
Loading
Personal Weather Stations






























Interactive Weather Map New forecast layout! Learn more

10-Day Weather Forecast

Advertisements
Track Severe Weather on mobile